createdAt,value
2022-10-25T00:00:00.677Z,81.26
2022-10-25T00:01:00.768Z,81.65
2022-10-25T00:02:01.101Z,81.45
2022-10-25T00:03:00.791Z,81.65
2022-10-25T00:04:00.815Z,81.93
2022-10-25T00:05:00.836Z,81.88
2022-10-25T00:06:00.868Z,82.17
2022-10-25T00:07:00.921Z,81.78
2022-10-25T00:08:00.930Z,81.93
2022-10-25T00:09:01.217Z,81.78
2022-10-25T00:10:01.480Z,81.35
2022-10-25T00:11:01.025Z,81.98
2022-10-25T00:12:01.056Z,81.40
2022-10-25T00:13:01.087Z,82.26
2022-10-25T00:15:01.403Z,81.74
2022-10-25T00:17:01.246Z,81.45
2022-10-25T00:19:01.377Z,81.40
2022-10-25T00:20:01.311Z,81.98
2022-10-25T00:22:01.671Z,81.88
2022-10-25T00:23:01.425Z,81.88
2022-10-25T00:24:01.442Z,81.78
2022-10-25T00:25:01.476Z,81.93
2022-10-25T00:26:01.502Z,81.88
2022-10-25T00:27:01.534Z,81.98
2022-10-25T00:28:01.567Z,81.98
2022-10-25T00:29:01.945Z,82.23
2022-10-25T00:30:01.625Z,81.07
2022-10-25T00:31:01.659Z,82.03
2022-10-25T00:32:01.685Z,81.74
2022-10-25T00:33:01.722Z,82.17
2022-10-25T00:34:01.763Z,81.84
2022-10-25T00:35:02.084Z,81.35
2022-10-25T00:36:01.809Z,81.78
2022-10-25T00:37:01.845Z,81.88
2022-10-25T00:38:01.941Z,81.55
2022-10-25T00:39:01.940Z,81.55
2022-10-25T00:40:01.944Z,82.13
2022-10-25T00:41:02.223Z,81.88
2022-10-25T00:42:01.999Z,81.84
2022-10-25T00:43:02.299Z,81.84
2022-10-25T00:44:02.125Z,81.35
2022-10-25T00:45:02.218Z,81.84
2022-10-25T00:47:02.523Z,81.65
2022-10-25T00:48:02.202Z,81.65
2022-10-25T00:49:02.220Z,81.35
2022-10-25T00:50:02.274Z,82.13
2022-10-25T00:51:02.301Z,82.03
2022-10-25T00:52:02.319Z,81.16
2022-10-25T00:53:03.084Z,82.23
2022-10-25T00:54:02.704Z,81.98
2022-10-25T00:55:02.442Z,81.88
2022-10-25T00:56:02.547Z,81.88
2022-10-25T00:57:02.477Z,81.84
2022-10-25T00:58:02.509Z,82.17
2022-10-25T00:59:02.634Z,81.78
2022-10-25T01:00:02.572Z,81.30
2022-10-25T01:01:03.066Z,81.88
2022-10-25T01:02:02.808Z,81.49
2022-10-25T01:03:02.674Z,81.78
2022-10-25T01:04:02.696Z,81.74
2022-10-25T01:05:02.732Z,81.49
2022-10-25T01:06:02.756Z,81.88
2022-10-25T01:07:02.789Z,81.45
2022-10-25T01:08:03.071Z,82.07
2022-10-25T01:09:02.855Z,81.26
2022-10-25T01:10:02.885Z,81.68
2022-10-25T01:11:02.967Z,81.55
2022-10-25T01:12:02.946Z,81.93
2022-10-25T01:14:03.321Z,81.68
2022-10-25T01:15:03.040Z,82.07
2022-10-25T01:16:03.077Z,81.74
2022-10-25T01:17:03.105Z,81.68
2022-10-25T01:18:03.133Z,81.45
2022-10-25T01:19:03.184Z,81.26
2022-10-25T01:20:03.208Z,81.45
2022-10-25T01:21:03.527Z,81.93
2022-10-25T01:23:03.438Z,81.88
2022-10-25T01:24:03.321Z,81.30
2022-10-25T01:25:03.356Z,81.45
2022-10-25T01:26:03.405Z,81.45
2022-10-25T01:27:03.441Z,81.65
2022-10-25T01:28:03.763Z,81.84
2022-10-25T01:29:03.489Z,81.84
2022-10-25T01:30:03.513Z,81.35
2022-10-25T01:31:03.545Z,81.55
2022-10-25T01:32:03.680Z,81.84
2022-10-25T01:33:03.606Z,81.74
2022-10-25T01:34:03.635Z,81.84
2022-10-25T01:35:03.919Z,81.74
2022-10-25T01:36:03.771Z,81.93
2022-10-25T01:37:03.734Z,81.84
2022-10-25T01:38:03.760Z,82.03
2022-10-25T01:39:03.794Z,82.13
2022-10-25T01:40:03.823Z,81.84
2022-10-25T01:41:03.855Z,82.13
2022-10-25T01:42:04.191Z,82.13
2022-10-25T01:43:03.943Z,81.78
2022-10-25T01:44:03.951Z,81.84
2022-10-25T01:45:03.992Z,81.26
2022-10-25T01:46:04.013Z,81.93
2022-10-25T01:48:04.376Z,81.65
2022-10-25T01:49:04.133Z,81.93
2022-10-25T01:50:04.192Z,82.03
2022-10-25T01:51:04.220Z,81.74
2022-10-25T01:52:04.201Z,81.74
2022-10-25T01:53:04.236Z,81.93
2022-10-25T01:54:04.566Z,81.45
2022-10-25T01:55:04.297Z,81.65
2022-10-25T01:56:04.328Z,81.55
2022-10-25T01:57:04.366Z,81.65
2022-10-25T01:59:04.460Z,81.55
2022-10-25T02:00:04.452Z,81.74
2022-10-25T02:01:04.835Z,81.74
2022-10-25T02:02:04.516Z,81.74
2022-10-25T02:03:04.550Z,82.23
2022-10-25T02:04:04.575Z,81.84
2022-10-25T02:05:04.669Z,81.74
2022-10-25T02:06:04.644Z,81.74
2022-10-25T02:07:04.973Z,81.93
2022-10-25T02:09:04.919Z,81.74
2022-10-25T02:12:04.830Z,81.93
2022-10-25T02:13:04.859Z,82.03
2022-10-25T02:14:05.188Z,82.13
2022-10-25T02:15:04.944Z,81.65
2022-10-25T02:16:04.955Z,81.74
2022-10-25T02:17:04.989Z,82.03
2022-10-25T02:18:05.021Z,82.61
2022-10-25T02:19:05.109Z,82.61
2022-10-25T02:20:05.081Z,82.32
2022-10-25T02:21:05.413Z,82.61
2022-10-25T02:22:05.139Z,82.42
2022-10-25T02:23:05.177Z,82.61
2022-10-25T02:24:05.203Z,82.42
2022-10-25T02:25:05.236Z,82.61
2022-10-25T02:26:05.269Z,82.13
2022-10-25T02:27:05.300Z,82.32
2022-10-25T02:28:05.580Z,82.03
2022-10-25T02:29:05.362Z,82.07
2022-10-25T02:30:05.391Z,82.03
2022-10-25T02:31:05.467Z,82.13
2022-10-25T02:32:05.460Z,82.03
2022-10-25T02:33:05.494Z,82.23
2022-10-25T02:34:05.519Z,82.51
2022-10-25T02:35:05.911Z,82.23
2022-10-25T02:36:05.580Z,82.13
2022-10-25T02:37:05.613Z,82.51
2022-10-25T02:38:05.647Z,82.32
2022-10-25T02:39:05.676Z,82.36
2022-10-25T02:40:05.710Z,82.23
2022-10-25T02:41:05.751Z,82.51
2022-10-25T02:42:06.069Z,82.36
2022-10-25T02:43:05.912Z,82.13
2022-10-25T02:44:05.842Z,82.23
2022-10-25T02:45:05.865Z,82.32
2022-10-25T02:46:05.994Z,82.17
2022-10-25T02:47:05.950Z,82.23
2022-10-25T02:48:05.958Z,82.71
2022-10-25T02:50:06.363Z,82.23
2022-10-25T02:51:06.051Z,82.42
2022-10-25T02:52:06.094Z,82.90
2022-10-25T02:53:06.117Z,82.90
2022-10-25T02:54:06.148Z,82.71
2022-10-25T02:55:06.183Z,82.61
2022-10-25T02:56:06.210Z,82.71
2022-10-25T02:57:06.544Z,82.81
2022-10-25T02:58:06.270Z,82.90
2022-10-25T02:59:06.372Z,82.81
2022-10-25T03:00:06.411Z,82.81
2022-10-25T03:01:06.474Z,82.81
2022-10-25T03:02:06.395Z,82.61
2022-10-25T03:03:06.451Z,82.81
2022-10-25T03:04:06.762Z,83.09
2022-10-25T03:06:06.543Z,82.90
2022-10-25T03:08:07.809Z,82.90
2022-10-25T03:09:06.617Z,82.81
2022-10-25T03:10:06.654Z,82.81
2022-10-25T03:11:07.281Z,82.90
2022-10-25T03:12:06.712Z,82.81
2022-10-25T03:13:06.756Z,82.90
2022-10-25T03:14:06.776Z,82.81
2022-10-25T03:15:06.806Z,82.81
2022-10-25T03:16:06.837Z,82.81
2022-10-25T03:18:07.148Z,83.00
2022-10-25T03:19:06.956Z,83.00
2022-10-25T03:20:06.977Z,83.00
2022-10-25T03:21:07.001Z,83.00
2022-10-25T03:22:07.029Z,82.81
2022-10-25T03:23:07.057Z,82.42
2022-10-25T03:24:07.087Z,83.19
2022-10-25T03:26:07.154Z,82.23
2022-10-25T03:29:07.295Z,82.42
2022-10-25T03:30:07.283Z,82.23
2022-10-25T03:31:07.414Z,82.42
2022-10-25T03:32:07.746Z,82.03
2022-10-25T03:33:07.372Z,82.51
2022-10-25T03:34:07.405Z,82.13
2022-10-25T03:35:07.453Z,82.23
2022-10-25T03:37:07.497Z,82.42
2022-10-25T03:38:07.530Z,82.42
2022-10-25T03:40:07.844Z,82.51
2022-10-25T03:41:07.622Z,82.23
2022-10-25T03:42:07.649Z,82.07
2022-10-25T03:43:07.759Z,82.23
2022-10-25T03:44:07.715Z,82.32
2022-10-25T03:45:07.747Z,82.32
2022-10-25T03:46:07.817Z,82.32
2022-10-25T03:47:08.110Z,82.42
2022-10-25T03:48:07.838Z,82.51
2022-10-25T03:49:07.872Z,82.42
2022-10-25T03:50:07.910Z,82.23
2022-10-25T03:51:08.013Z,82.32
2022-10-25T03:54:08.278Z,82.42
2022-10-25T03:55:08.064Z,82.42
2022-10-25T03:56:08.092Z,82.42
2022-10-25T03:57:08.127Z,82.71
2022-10-25T03:58:08.153Z,81.93
2022-10-25T03:59:08.186Z,82.03
2022-10-25T04:00:08.316Z,82.42
2022-10-25T04:01:08.631Z,82.32
2022-10-25T04:02:08.381Z,82.51
2022-10-25T04:03:08.337Z,82.51
2022-10-25T04:04:08.342Z,82.61
2022-10-25T04:05:08.397Z,82.42
2022-10-25T04:06:08.441Z,82.42
2022-10-25T04:07:08.459Z,82.51
2022-10-25T04:08:08.775Z,82.03
2022-10-25T04:09:08.532Z,82.90
2022-10-25T04:10:08.530Z,82.81
2022-10-25T04:12:08.596Z,83.19
2022-10-25T04:13:08.626Z,83.00
2022-10-25T04:14:08.660Z,83.00
2022-10-25T04:15:08.998Z,83.09
2022-10-25T04:16:08.724Z,83.09
2022-10-25T04:17:08.752Z,83.09
2022-10-25T04:19:08.816Z,83.29
2022-10-25T04:20:08.850Z,83.00
2022-10-25T04:21:08.885Z,83.09
2022-10-25T04:22:09.210Z,83.39
2022-10-25T04:23:08.960Z,83.09
2022-10-25T04:25:09.002Z,83.09
2022-10-25T04:26:09.032Z,82.51
2022-10-25T04:27:09.065Z,83.00
2022-10-25T04:29:09.426Z,83.09
2022-10-25T04:30:09.580Z,82.42
2022-10-25T04:31:09.193Z,83.19
2022-10-25T04:32:09.284Z,82.71
2022-10-25T04:33:09.257Z,82.71
2022-10-25T04:34:09.286Z,82.90
2022-10-25T04:35:09.644Z,82.90
2022-10-25T04:37:09.383Z,82.81
2022-10-25T04:38:09.419Z,82.61
2022-10-25T04:39:09.559Z,82.61
2022-10-25T04:40:09.475Z,82.61
2022-10-25T04:43:09.572Z,82.51
2022-10-25T04:44:09.600Z,82.61
2022-10-25T04:45:09.637Z,82.81
2022-10-25T04:46:10.410Z,82.61
2022-10-25T04:49:10.364Z,82.90
2022-10-25T04:50:09.791Z,82.71
2022-10-25T04:51:09.817Z,82.90
2022-10-25T04:53:09.884Z,82.81
2022-10-25T04:54:09.925Z,82.90
2022-10-25T04:56:10.250Z,83.19
2022-10-25T04:57:10.008Z,83.09
2022-10-25T04:58:10.041Z,83.29
2022-10-25T04:59:10.071Z,83.00
2022-10-25T05:00:10.110Z,83.19
2022-10-25T05:01:10.195Z,83.29
2022-10-25T05:02:10.464Z,83.29
2022-10-25T05:03:13.156Z,83.29
2022-10-25T05:04:10.232Z,83.09
2022-10-25T05:05:10.268Z,83.00
2022-10-25T05:06:10.291Z,83.09
2022-10-25T05:07:10.320Z,83.19
2022-10-25T05:08:10.352Z,83.29
2022-10-25T05:09:10.737Z,82.71
2022-10-25T05:10:10.416Z,82.51
2022-10-25T05:11:10.444Z,82.90
2022-10-25T05:13:10.531Z,82.90
2022-10-25T05:14:10.542Z,82.90
2022-10-25T05:15:10.572Z,82.81
2022-10-25T05:16:10.907Z,82.81
2022-10-25T05:17:10.650Z,82.42
2022-10-25T05:18:10.669Z,82.42
2022-10-25T05:19:10.697Z,82.81
2022-10-25T05:21:10.764Z,82.90
2022-10-25T05:22:10.791Z,82.90
2022-10-25T05:23:11.181Z,82.42
2022-10-25T05:24:10.856Z,82.90
2022-10-25T05:25:10.889Z,82.51
2022-10-25T05:26:10.919Z,82.71
2022-10-25T05:27:10.960Z,82.81
2022-10-25T05:28:10.980Z,82.81
2022-10-25T05:29:11.034Z,82.71
2022-10-25T05:30:11.375Z,82.81
2022-10-25T05:32:11.108Z,82.90
2022-10-25T05:33:11.140Z,82.90
2022-10-25T05:34:11.169Z,82.61
2022-10-25T05:36:11.599Z,82.61
2022-10-25T05:37:11.267Z,82.90
2022-10-25T05:38:11.295Z,82.61
2022-10-25T05:39:11.324Z,82.51
2022-10-25T05:40:11.374Z,82.61
2022-10-25T05:41:11.391Z,82.51
2022-10-25T05:43:11.758Z,82.61
2022-10-25T05:44:11.487Z,82.61
2022-10-25T05:45:11.551Z,82.71
2022-10-25T05:47:11.580Z,82.51
2022-10-25T05:48:11.718Z,83.09
2022-10-25T05:49:11.643Z,83.09
2022-10-25T05:50:11.942Z,83.09
2022-10-25T05:51:28.831Z,83.00
2022-10-25T05:52:11.839Z,83.39
2022-10-25T05:53:11.773Z,83.09
2022-10-25T05:54:11.803Z,83.09
2022-10-25T05:55:11.836Z,83.00
2022-10-25T05:56:11.862Z,83.00
2022-10-25T05:57:12.146Z,83.48
2022-10-25T05:58:11.931Z,83.00
2022-10-25T05:59:11.964Z,83.19
2022-10-25T06:00:12.003Z,83.09
2022-10-25T06:01:12.211Z,83.29
2022-10-25T06:02:12.266Z,83.77
2022-10-25T06:03:12.083Z,83.77
2022-10-25T06:04:12.421Z,83.67
2022-10-25T06:05:12.155Z,83.87
2022-10-25T06:06:12.186Z,83.87
2022-10-25T06:07:12.219Z,83.67
2022-10-25T06:08:12.237Z,83.58
2022-10-25T06:09:12.271Z,83.77
2022-10-25T06:10:12.305Z,83.77
2022-10-25T06:11:12.636Z,83.77
2022-10-25T06:12:12.363Z,83.72
2022-10-25T06:13:12.462Z,83.77
2022-10-25T06:14:12.431Z,83.77
2022-10-25T06:15:12.463Z,83.87
2022-10-25T06:16:12.490Z,83.96
2022-10-25T06:17:12.793Z,84.06
2022-10-25T06:18:12.655Z,83.96
2022-10-25T06:19:12.587Z,84.06
2022-10-25T06:20:12.615Z,83.29
2022-10-25T06:22:12.690Z,83.58
2022-10-25T06:24:13.041Z,83.29
2022-10-25T06:25:12.774Z,83.58
2022-10-25T06:26:12.802Z,83.29
2022-10-25T06:27:12.838Z,83.39
2022-10-25T06:28:12.865Z,83.09
2022-10-25T06:29:12.904Z,83.19
2022-10-25T06:30:13.346Z,83.09
2022-10-25T06:31:12.970Z,83.29
2022-10-25T06:32:13.005Z,83.29
2022-10-25T06:33:13.049Z,83.14
2022-10-25T06:34:13.058Z,83.29
2022-10-25T06:35:13.840Z,83.48
2022-10-25T06:36:13.424Z,83.58
2022-10-25T06:37:13.155Z,82.90
2022-10-25T06:39:13.232Z,83.19
2022-10-25T06:40:13.288Z,83.39
2022-10-25T06:41:13.275Z,83.48
2022-10-25T06:42:13.315Z,83.48
2022-10-25T06:43:13.588Z,83.19
2022-10-25T06:44:13.374Z,83.19
2022-10-25T06:45:13.403Z,83.39
2022-10-25T06:46:13.432Z,83.09
2022-10-25T06:47:17.400Z,83.39
2022-10-25T06:48:13.525Z,82.90
2022-10-25T06:51:13.923Z,83.09
2022-10-25T06:52:13.641Z,83.09
2022-10-25T06:53:13.668Z,82.90
2022-10-25T06:54:13.686Z,83.09
2022-10-25T06:55:13.721Z,83.04
2022-10-25T06:56:14.913Z,83.29
2022-10-25T06:57:13.881Z,83.09
2022-10-25T06:58:14.283Z,83.23
2022-10-25T06:59:13.856Z,82.61
2022-10-25T07:00:13.875Z,82.71
2022-10-25T07:01:14.061Z,82.90
2022-10-25T07:02:14.025Z,83.09
2022-10-25T07:04:14.311Z,83.14
2022-10-25T07:06:14.237Z,83.00
2022-10-25T07:07:14.120Z,83.14
2022-10-25T07:08:14.132Z,83.00
2022-10-25T07:09:14.156Z,82.94
2022-10-25T07:10:14.189Z,82.84
2022-10-25T07:11:14.523Z,82.51
2022-10-25T07:13:14.284Z,82.84
2022-10-25T07:14:14.314Z,83.04
2022-10-25T07:15:14.410Z,82.75
2022-10-25T07:16:14.398Z,82.56
2022-10-25T07:17:14.417Z,82.03
2022-10-25T07:18:14.739Z,82.32
2022-10-25T07:19:14.484Z,82.17
2022-10-25T07:20:14.508Z,82.42
2022-10-25T07:21:14.586Z,82.46
2022-10-25T07:22:14.583Z,82.32
2022-10-25T07:23:14.620Z,82.65
2022-10-25T07:24:14.640Z,82.46
2022-10-25T07:25:14.978Z,82.23
2022-10-25T07:26:14.691Z,82.42
2022-10-25T07:27:14.753Z,82.36
2022-10-25T07:28:14.753Z,81.88
2022-10-25T07:29:14.789Z,82.13
2022-10-25T07:30:14.829Z,82.07
2022-10-25T07:31:14.854Z,82.07
2022-10-25T07:32:15.132Z,82.07
2022-10-25T07:33:14.913Z,81.78
2022-10-25T07:34:14.945Z,82.07
2022-10-25T07:35:14.975Z,81.49
2022-10-25T07:36:15.019Z,81.68
2022-10-25T07:37:15.041Z,81.49
2022-10-25T07:38:15.068Z,81.49
2022-10-25T07:39:15.429Z,81.88
2022-10-25T07:40:15.134Z,81.88
2022-10-25T07:41:15.169Z,81.98
2022-10-25T07:42:15.197Z,82.26
2022-10-25T07:43:15.227Z,81.40
2022-10-25T07:45:18.693Z,81.68
2022-10-25T07:46:15.325Z,81.49
2022-10-25T07:47:15.533Z,82.07
2022-10-25T07:48:15.386Z,81.78
2022-10-25T07:49:15.419Z,81.68
2022-10-25T07:50:15.449Z,81.49
2022-10-25T07:51:15.782Z,81.68
2022-10-25T07:52:15.510Z,81.59
2022-10-25T07:53:15.541Z,81.68
2022-10-25T07:54:15.578Z,81.30
2022-10-25T07:55:15.639Z,81.40
2022-10-25T07:56:18.842Z,81.30
2022-10-25T07:57:15.919Z,81.30
2022-10-25T07:58:15.701Z,81.20
2022-10-25T07:59:15.740Z,81.30
2022-10-25T08:00:15.764Z,81.30
2022-10-25T08:01:15.821Z,81.30
2022-10-25T08:02:15.839Z,81.30
2022-10-25T08:03:16.157Z,81.49
2022-10-25T08:04:15.895Z,80.91
2022-10-25T08:05:15.930Z,80.91
2022-10-25T08:06:15.952Z,81.30
2022-10-25T08:07:16.010Z,81.01
2022-10-25T08:08:16.021Z,80.91
2022-10-25T08:09:33.619Z,80.82
2022-10-25T08:10:16.335Z,80.91
2022-10-25T08:11:16.130Z,80.91
2022-10-25T08:12:20.304Z,80.91
2022-10-25T08:13:16.180Z,81.40
2022-10-25T08:14:16.289Z,81.59
2022-10-25T08:16:16.539Z,81.11
2022-10-25T08:17:16.354Z,81.11
2022-10-25T08:18:16.351Z,81.05
2022-10-25T08:19:16.366Z,81.11
2022-10-25T08:20:16.401Z,81.15
2022-10-25T08:21:16.455Z,81.11
2022-10-25T08:22:16.458Z,81.11
2022-10-25T08:23:16.803Z,81.11
2022-10-25T08:24:16.644Z,80.72
2022-10-25T08:25:16.560Z,81.11
2022-10-25T08:26:16.624Z,80.62
2022-10-25T08:27:16.659Z,80.57
2022-10-25T08:28:16.650Z,80.72
2022-10-25T08:29:16.683Z,81.05
2022-10-25T08:30:17.022Z,80.47
2022-10-25T08:31:16.759Z,80.33
2022-10-25T08:32:16.796Z,80.47
2022-10-25T08:33:16.810Z,80.47
2022-10-25T08:35:16.881Z,80.05
2022-10-25T08:36:16.906Z,80.33
2022-10-25T08:38:17.217Z,79.89
2022-10-25T08:39:17.001Z,80.18
2022-10-25T08:40:17.042Z,80.08
2022-10-25T08:41:17.093Z,80.38
2022-10-25T08:42:17.093Z,79.70
2022-10-25T08:43:17.156Z,79.60
2022-10-25T08:44:17.194Z,79.70
2022-10-25T08:45:17.511Z,79.50
2022-10-25T08:46:17.222Z,79.22
2022-10-25T08:47:17.263Z,79.80
2022-10-25T08:49:17.395Z,79.60
2022-10-25T08:50:17.355Z,79.41
2022-10-25T08:51:17.381Z,79.41
2022-10-25T08:52:17.715Z,79.41
2022-10-25T08:53:17.547Z,79.02
2022-10-25T08:54:17.486Z,79.02
2022-10-25T08:55:17.509Z,79.22
2022-10-25T08:56:17.914Z,79.12
2022-10-25T08:57:17.597Z,79.16
2022-10-25T08:58:17.610Z,78.64
2022-10-25T08:59:17.963Z,78.48
2022-10-25T09:00:17.681Z,78.67
2022-10-25T09:02:17.879Z,78.48
2022-10-25T09:03:17.763Z,78.58
2022-10-25T09:04:17.898Z,78.58
2022-10-25T09:05:17.930Z,78.58
2022-10-25T09:06:18.162Z,78.77
2022-10-25T09:07:17.909Z,78.77
2022-10-25T09:08:17.926Z,78.38
2022-10-25T09:09:18.082Z,78.48
2022-10-25T09:10:17.990Z,78.00
2022-10-25T09:12:18.456Z,78.09
2022-10-25T09:13:18.086Z,77.80
2022-10-25T09:14:18.151Z,78.09
2022-10-25T09:15:18.217Z,78.09
2022-10-25T09:16:18.197Z,78.09
2022-10-25T09:17:18.216Z,77.61
2022-10-25T09:18:18.500Z,77.32
2022-10-25T09:19:18.282Z,77.61
2022-10-25T09:20:18.408Z,77.32
2022-10-25T09:21:22.379Z,77.51
2022-10-25T09:22:18.380Z,78.09
2022-10-25T09:24:18.743Z,77.42
2022-10-25T09:25:18.476Z,77.51
2022-10-25T09:26:18.557Z,77.51
2022-10-25T09:27:18.537Z,77.80
2022-10-25T09:28:18.571Z,78.00
2022-10-25T09:29:18.604Z,78.00
2022-10-25T09:30:19.042Z,78.09
2022-10-25T09:32:18.720Z,77.61
2022-10-25T09:33:18.766Z,77.61
2022-10-25T09:34:18.772Z,77.71
2022-10-25T09:35:18.881Z,77.61
2022-10-25T09:36:18.833Z,77.42
2022-10-25T09:37:19.116Z,78.00
2022-10-25T09:38:18.990Z,77.80
2022-10-25T09:39:18.950Z,77.51
2022-10-25T09:40:18.972Z,77.42
2022-10-25T09:41:19.010Z,77.42
2022-10-25T09:42:19.053Z,77.51
2022-10-25T09:43:19.058Z,77.55
2022-10-25T09:44:19.441Z,77.51
2022-10-25T09:45:19.123Z,77.51
2022-10-25T09:46:19.182Z,77.55
2022-10-25T09:48:19.258Z,77.13
2022-10-25T09:49:19.257Z,77.32
2022-10-25T09:50:19.357Z,77.26
2022-10-25T09:51:19.622Z,77.13
2022-10-25T09:52:19.380Z,77.26
2022-10-25T09:53:21.863Z,77.45
2022-10-25T09:54:19.415Z,77.22
2022-10-25T09:55:19.551Z,77.32
2022-10-25T09:56:19.821Z,77.22
2022-10-25T09:57:19.532Z,77.61
2022-10-25T09:58:19.797Z,77.51
2022-10-25T09:59:19.582Z,77.55
2022-10-25T10:00:19.611Z,77.03
2022-10-25T10:01:20.102Z,77.22
2022-10-25T10:03:19.709Z,76.74
2022-10-25T10:04:19.780Z,77.26
2022-10-25T10:05:20.085Z,77.03
2022-10-25T10:06:19.813Z,77.26
2022-10-25T10:08:19.871Z,76.45
2022-10-25T10:09:19.907Z,76.74
2022-10-25T10:10:19.935Z,77.22
2022-10-25T10:11:19.967Z,76.74
2022-10-25T10:12:20.303Z,76.84
2022-10-25T10:13:20.037Z,76.64
2022-10-25T10:14:20.067Z,76.84
2022-10-25T10:16:20.132Z,76.93
2022-10-25T10:17:20.165Z,76.84
2022-10-25T10:18:20.199Z,77.03
2022-10-25T10:19:20.475Z,76.87
2022-10-25T10:21:20.321Z,76.78
2022-10-25T10:22:20.331Z,76.64
2022-10-25T10:23:20.361Z,76.78
2022-10-25T10:24:20.400Z,76.68
2022-10-25T10:25:20.428Z,76.87
2022-10-25T10:26:20.754Z,76.97
2022-10-25T10:27:20.490Z,76.68
2022-10-25T10:28:20.524Z,76.93
2022-10-25T10:29:20.551Z,76.59
2022-10-25T10:31:20.621Z,76.64
2022-10-25T10:32:20.649Z,76.64
2022-10-25T10:33:20.986Z,76.29
2022-10-25T10:34:20.715Z,76.35
2022-10-25T10:35:20.750Z,76.55
2022-10-25T10:36:20.781Z,76.49
2022-10-25T10:37:20.887Z,76.29
2022-10-25T10:38:20.844Z,76.35
2022-10-25T10:39:20.944Z,76.35
2022-10-25T10:40:21.214Z,76.35
2022-10-25T10:41:20.943Z,76.39
2022-10-25T10:42:21.043Z,76.68
2022-10-25T10:43:21.012Z,76.20
2022-10-25T10:44:21.061Z,75.78
2022-10-25T10:45:21.080Z,75.91
2022-10-25T10:46:21.367Z,75.87
2022-10-25T10:48:21.172Z,76.16
2022-10-25T10:49:21.207Z,76.39
2022-10-25T10:53:21.356Z,76.20
2022-10-25T10:55:21.454Z,76.26
2022-10-25T10:56:21.431Z,76.16
2022-10-25T10:57:21.470Z,76.45
2022-10-25T10:58:21.804Z,76.49
2022-10-25T10:59:21.531Z,76.29
2022-10-25T11:00:21.569Z,76.26
2022-10-25T11:01:21.711Z,76.20
2022-10-25T11:02:21.958Z,76.49
2022-10-25T11:03:21.662Z,76.35
2022-10-25T11:04:24.071Z,76.59
2022-10-25T11:05:22.028Z,75.81
2022-10-25T11:06:21.758Z,75.91
2022-10-25T11:07:21.788Z,76.10
2022-10-25T11:08:21.824Z,75.91
2022-10-25T11:09:21.898Z,75.91
2022-10-25T11:10:21.904Z,75.71
2022-10-25T11:11:21.920Z,75.71
2022-10-25T11:12:22.206Z,75.71
2022-10-25T11:13:22.073Z,75.91
2022-10-25T11:14:22.023Z,75.81
2022-10-25T11:15:22.050Z,75.62
2022-10-25T11:16:24.404Z,75.52
2022-10-25T11:17:22.129Z,75.62
2022-10-25T11:18:22.158Z,75.71
2022-10-25T11:19:22.433Z,75.62
2022-10-25T11:20:22.229Z,75.81
2022-10-25T11:21:22.254Z,75.52
2022-10-25T11:22:22.403Z,75.71
2022-10-25T11:23:22.401Z,75.43
2022-10-25T11:24:22.397Z,75.23
2022-10-25T11:25:22.540Z,75.33
2022-10-25T11:26:22.666Z,75.43
2022-10-25T11:27:22.444Z,75.43
2022-10-25T11:30:22.581Z,75.33
2022-10-25T11:31:22.623Z,75.13
2022-10-25T11:32:22.627Z,75.33
2022-10-25T11:33:22.889Z,75.23
2022-10-25T11:34:22.675Z,75.33
2022-10-25T11:35:22.707Z,75.52
2022-10-25T11:36:23.080Z,75.33
2022-10-25T11:37:22.775Z,75.33
2022-10-25T11:38:22.891Z,75.43
2022-10-25T11:39:22.839Z,75.33
2022-10-25T11:40:23.171Z,74.75
2022-10-25T11:41:23.020Z,75.23
2022-10-25T11:43:23.126Z,74.85
2022-10-25T11:45:23.045Z,75.62
2022-10-25T11:46:23.066Z,75.52
2022-10-25T11:47:23.354Z,75.43
2022-10-25T11:48:23.151Z,75.33
2022-10-25T11:50:23.203Z,75.71
2022-10-25T11:51:23.233Z,75.33
2022-10-25T11:52:23.270Z,75.43
2022-10-25T11:53:23.295Z,75.33
2022-10-25T11:54:23.584Z,74.75
2022-10-25T11:55:23.364Z,75.33
2022-10-25T11:56:23.423Z,75.04
2022-10-25T11:57:23.554Z,75.04
2022-10-25T11:58:23.462Z,74.85
2022-10-25T11:59:23.496Z,74.94
2022-10-25T12:00:23.607Z,74.94
2022-10-25T12:01:23.823Z,75.27
2022-10-25T12:02:23.683Z,75.37
2022-10-25T12:03:23.636Z,75.23
2022-10-25T12:04:26.923Z,75.23
2022-10-25T12:05:23.701Z,75.13
2022-10-25T12:06:23.725Z,75.13
2022-10-25T12:07:23.760Z,74.65
2022-10-25T12:08:24.097Z,74.94
2022-10-25T12:09:23.825Z,74.69
2022-10-25T12:10:23.858Z,74.79
2022-10-25T12:11:23.897Z,74.75
2022-10-25T12:12:23.938Z,74.65
2022-10-25T12:13:24.091Z,74.75
2022-10-25T12:14:23.989Z,74.75
2022-10-25T12:15:24.339Z,74.59
2022-10-25T12:16:24.054Z,74.65
2022-10-25T12:17:24.094Z,74.75
2022-10-25T12:18:26.206Z,74.85
2022-10-25T12:19:24.159Z,74.69
2022-10-25T12:20:24.381Z,74.75
2022-10-25T12:21:24.228Z,74.65
2022-10-25T12:22:24.907Z,74.79
2022-10-25T12:23:24.293Z,74.85
2022-10-25T12:24:24.323Z,74.88
2022-10-25T12:25:24.350Z,74.79
2022-10-25T12:26:24.383Z,74.55
2022-10-25T12:27:24.542Z,74.94
2022-10-25T12:28:24.758Z,74.94
2022-10-25T12:29:24.598Z,74.98
2022-10-25T12:31:24.563Z,75.17
2022-10-25T12:32:24.592Z,74.88
2022-10-25T12:33:24.622Z,74.49
2022-10-25T12:34:24.952Z,74.59
2022-10-25T12:35:24.794Z,74.21
2022-10-25T12:37:24.752Z,74.49
2022-10-25T12:38:24.785Z,74.40
2022-10-25T12:39:24.971Z,74.49
2022-10-25T12:41:24.916Z,74.40
2022-10-25T12:42:24.911Z,74.11
2022-10-25T12:43:24.956Z,74.40
2022-10-25T12:44:25.084Z,74.30
2022-10-25T12:45:25.171Z,74.01
2022-10-25T12:46:25.044Z,74.30
2022-10-25T12:48:25.417Z,74.11
2022-10-25T12:49:25.250Z,74.30
2022-10-25T12:50:25.272Z,74.21
2022-10-25T12:51:25.344Z,74.21
2022-10-25T12:52:25.247Z,74.49
2022-10-25T12:53:25.286Z,74.11
2022-10-25T12:54:25.568Z,74.21
2022-10-25T12:55:25.384Z,74.40
2022-10-25T12:56:25.377Z,74.11
2022-10-25T12:57:25.409Z,74.11
2022-10-25T12:58:25.450Z,74.69
2022-10-25T13:02:26.005Z,73.72
2022-10-25T13:03:25.653Z,73.91
2022-10-25T13:04:25.683Z,73.91
2022-10-25T13:05:25.783Z,74.11
2022-10-25T13:06:25.729Z,74.21
2022-10-25T13:07:25.745Z,74.11
2022-10-25T13:08:25.773Z,74.21
2022-10-25T13:09:27.263Z,73.72
2022-10-25T13:11:26.088Z,73.53
2022-10-25T13:12:26.079Z,73.63
2022-10-25T13:13:25.983Z,73.72
2022-10-25T13:14:26.159Z,73.33
2022-10-25T13:15:26.011Z,73.43
2022-10-25T13:16:26.291Z,73.53
2022-10-25T13:18:26.220Z,73.72
2022-10-25T13:19:42.786Z,73.43
2022-10-25T13:20:26.176Z,73.53
2022-10-25T13:21:26.214Z,73.63
2022-10-25T13:22:26.236Z,73.63
2022-10-25T13:23:26.577Z,73.82
2022-10-25T13:24:26.319Z,73.63
2022-10-25T13:25:26.400Z,73.72
2022-10-25T13:26:26.375Z,73.53
2022-10-25T13:27:26.429Z,73.63
2022-10-25T13:29:26.774Z,73.63
2022-10-25T13:30:26.520Z,73.82
2022-10-25T13:31:26.540Z,73.72
2022-10-25T13:32:26.642Z,73.63
2022-10-25T13:33:26.740Z,73.82
2022-10-25T13:34:26.857Z,73.72
2022-10-25T13:36:27.004Z,73.53
2022-10-25T13:37:26.742Z,73.82
2022-10-25T13:38:26.771Z,73.53
2022-10-25T13:39:26.805Z,73.82
2022-10-25T13:40:26.838Z,73.53
2022-10-25T13:41:26.867Z,73.72
2022-10-25T13:42:26.906Z,73.72
2022-10-25T13:43:27.239Z,73.63
2022-10-25T13:44:26.975Z,73.82
2022-10-25T13:45:30.006Z,73.72
2022-10-25T13:46:27.032Z,73.82
2022-10-25T13:47:27.064Z,73.53
2022-10-25T13:48:27.102Z,73.63
2022-10-25T13:49:27.131Z,73.82
2022-10-25T13:50:27.583Z,73.72
2022-10-25T13:51:27.200Z,73.91
2022-10-25T13:53:27.344Z,73.82
2022-10-25T13:54:27.299Z,73.63
2022-10-25T13:55:27.335Z,72.95
2022-10-25T13:56:27.359Z,73.04
2022-10-25T13:57:27.655Z,73.14
2022-10-25T13:59:27.465Z,73.24
2022-10-25T14:00:27.596Z,73.24
2022-10-25T14:01:27.671Z,73.63
2022-10-25T14:02:27.675Z,73.43
2022-10-25T14:03:27.595Z,73.08
2022-10-25T14:04:27.886Z,73.33
2022-10-25T14:05:27.665Z,73.04
2022-10-25T14:06:27.799Z,73.43
2022-10-25T14:07:27.730Z,73.33
2022-10-25T14:08:27.769Z,73.37
2022-10-25T14:09:27.794Z,72.89
2022-10-25T14:10:28.032Z,72.79
2022-10-25T14:12:28.303Z,72.85
2022-10-25T14:13:27.928Z,72.79
2022-10-25T14:14:27.959Z,72.66
2022-10-25T14:15:27.995Z,72.66
2022-10-25T14:16:28.068Z,72.79
2022-10-25T14:17:28.063Z,72.79
2022-10-25T14:18:28.091Z,72.79
2022-10-25T14:19:28.430Z,72.79